sensor_id;sensor_type;location;lat;lon;timestamp;pressure;altitude;pressure_sealevel;temperature;humidity
18504;BME280;9381;54.244;10.074;2023-06-14T00:03:54;101494.69;;;15.79;100.00
18504;BME280;9381;54.244;10.074;2023-06-14T00:08:56;101492.88;;;15.73;100.00
18504;BME280;9381;54.244;10.074;2023-06-14T00:13:56;101490.66;;;15.81;100.00
18504;BME280;9381;54.244;10.074;2023-06-14T00:18:57;101497.97;;;15.69;100.00
18504;BME280;9381;54.244;10.074;2023-06-14T00:23:58;101499.03;;;15.68;100.00
18504;BME280;9381;54.244;10.074;2023-06-14T00:28:59;101497.00;;;15.64;100.00
18504;BME280;9381;54.244;10.074;2023-06-14T00:33:59;101500.63;;;15.76;100.00
18504;BME280;9381;54.244;10.074;2023-06-14T00:39:00;101497.28;;;15.74;100.00
18504;BME280;9381;54.244;10.074;2023-06-14T00:44:01;101494.41;;;15.69;100.00
18504;BME280;9381;54.244;10.074;2023-06-14T00:49:01;101493.56;;;15.57;100.00
18504;BME280;9381;54.244;10.074;2023-06-14T00:54:03;101504.84;;;15.42;100.00
18504;BME280;9381;54.244;10.074;2023-06-14T00:59:03;101504.31;;;15.52;100.00
18504;BME280;9381;54.244;10.074;2023-06-14T01:04:04;101500.50;;;15.53;100.00
18504;BME280;9381;54.244;10.074;2023-06-14T01:09:25;101504.84;;;15.42;100.00
18504;BME280;9381;54.244;10.074;2023-06-14T01:14:28;101502.84;;;15.49;100.00
18504;BME280;9381;54.244;10.074;2023-06-14T01:19:32;101503.16;;;15.41;100.00
18504;BME280;9381;54.244;10.074;2023-06-14T01:24:34;101515.59;;;15.37;100.00
18504;BME280;9381;54.244;10.074;2023-06-14T01:29:35;101510.81;;;15.51;100.00
18504;BME280;9381;54.244;10.074;2023-06-14T01:34:36;101520.69;;;15.34;100.00
18504;BME280;9381;54.244;10.074;2023-06-14T01:39:36;101525.97;;;15.29;100.00
18504;BME280;9381;54.244;10.074;2023-06-14T01:44:37;101519.25;;;15.31;100.00
18504;BME280;9381;54.244;10.074;2023-06-14T01:49:38;101529.22;;;15.19;100.00
18504;BME280;9381;54.244;10.074;2023-06-14T01:54:39;101524.81;;;15.18;100.00
18504;BME280;9381;54.244;10.074;2023-06-14T01:59:42;101522.22;;;15.23;100.00
18504;BME280;9381;54.244;10.074;2023-06-14T02:04:43;101518.22;;;15.08;100.00
18504;BME280;9381;54.244;10.074;2023-06-14T02:09:43;101513.16;;;15.11;100.00
18504;BME280;9381;54.244;10.074;2023-06-14T02:14:43;101510.34;;;15.00;100.00
18504;BME280;9381;54.244;10.074;2023-06-14T02:19:44;101518.38;;;14.95;100.00
18504;BME280;9381;54.244;10.074;2023-06-14T02:24:45;101512.47;;;14.98;100.00
18504;BME280;9381;54.244;10.074;2023-06-14T02:29:45;101514.59;;;14.96;100.00
18504;BME280;9381;54.244;10.074;2023-06-14T02:34:46;101516.84;;;14.81;100.00
18504;BME280;9381;54.244;10.074;2023-06-14T02:39:49;101516.63;;;14.82;100.00
18504;BME280;9381;54.244;10.074;2023-06-14T02:44:50;101518.13;;;14.78;100.00
18504;BME280;9381;54.244;10.074;2023-06-14T02:49:51;101525.63;;;14.83;100.00
18504;BME280;9381;54.244;10.074;2023-06-14T02:54:51;101525.63;;;14.83;100.00
18504;BME280;9381;54.244;10.074;2023-06-14T02:59:52;101532.31;;;14.87;100.00
18504;BME280;9381;54.244;10.074;2023-06-14T03:04:52;101532.75;;;14.84;100.00
18504;BME280;9381;54.244;10.074;2023-06-14T03:09:53;101531.44;;;14.86;100.00
18504;BME280;9381;54.244;10.074;2023-06-14T03:14:53;101531.06;;;14.83;100.00
18504;BME280;9381;54.244;10.074;2023-06-14T03:19:57;101529.41;;;14.82;100.00
18504;BME280;9381;54.244;10.074;2023-06-14T03:24:57;101535.16;;;14.92;100.00
18504;BME280;9381;54.244;10.074;2023-06-14T03:29:59;101544.09;;;14.99;100.00
18504;BME280;9381;54.244;10.074;2023-06-14T03:35:00;101530.94;;;14.96;100.00
18504;BME280;9381;54.244;10.074;2023-06-14T03:40:00;101529.13;;;15.08;100.00
18504;BME280;9381;54.244;10.074;2023-06-14T03:45:01;101543.13;;;15.11;100.00
18504;BME280;9381;54.244;10.074;2023-06-14T03:50:02;101543.69;;;15.20;100.00
18504;BME280;9381;54.244;10.074;2023-06-14T03:55:03;101543.00;;;15.24;100.00
18504;BME280;9381;54.244;10.074;2023-06-14T04:00:04;101549.13;;;15.38;100.00
18504;BME280;9381;54.244;10.074;2023-06-14T04:05:06;101556.69;;;15.54;100.00
18504;BME280;9381;54.244;10.074;2023-06-14T04:10:08;101558.72;;;15.76;100.00
18504;BME280;9381;54.244;10.074;2023-06-14T04:15:09;101573.63;;;15.74;100.00
18504;BME280;9381;54.244;10.074;2023-06-14T04:20:10;101567.75;;;15.77;100.00
18504;BME280;9381;54.244;10.074;2023-06-14T04:25:11;101587.25;;;15.92;100.00
18504;BME280;9381;54.244;10.074;2023-06-14T04:30:15;101583.59;;;15.98;100.00
18504;BME280;9381;54.244;10.074;2023-06-14T04:35:15;101579.38;;;16.13;100.00
18504;BME280;9381;54.244;10.074;2023-06-14T04:40:17;101590.34;;;16.25;100.00
18504;BME280;9381;54.244;10.074;2023-06-14T04:45:17;101591.31;;;16.30;100.00
18504;BME280;9381;54.244;10.074;2023-06-14T04:50:18;101590.78;;;16.40;100.00
18504;BME280;9381;54.244;10.074;2023-06-14T04:55:20;101591.50;;;16.47;100.00
18504;BME280;9381;54.244;10.074;2023-06-14T05:00:21;101590.34;;;16.66;100.00
18504;BME280;9381;54.244;10.074;2023-06-14T05:05:21;101593.69;;;16.68;100.00
18504;BME280;9381;54.244;10.074;2023-06-14T05:10:21;101600.94;;;16.85;100.00
18504;BME280;9381;54.244;10.074;2023-06-14T05:15:22;101598.00;;;16.87;100.00
18504;BME280;9381;54.244;10.074;2023-06-14T05:20:25;101602.38;;;16.99;100.00
18504;BME280;9381;54.244;10.074;2023-06-14T05:25:26;101601.19;;;17.07;100.00
18504;BME280;9381;54.244;10.074;2023-06-14T05:30:28;101601.44;;;17.17;100.00
18504;BME280;9381;54.244;10.074;2023-06-14T05:35:30;101602.59;;;17.32;100.00
18504;BME280;9381;54.244;10.074;2023-06-14T05:40:31;101606.06;;;17.51;100.00
18504;BME280;9381;54.244;10.074;2023-06-14T05:45:31;101601.31;;;17.58;100.00
18504;BME280;9381;54.244;10.074;2023-06-14T05:50:31;101614.69;;;17.71;100.00
18504;BME280;9381;54.244;10.074;2023-06-14T05:55:31;101608.19;;;17.88;100.00
18504;BME280;9381;54.244;10.074;2023-06-14T06:00:32;101611.88;;;17.93;100.00
18504;BME280;9381;54.244;10.074;2023-06-14T06:05:32;101613.94;;;18.14;100.00
18504;BME280;9381;54.244;10.074;2023-06-14T06:10:33;101619.50;;;18.19;100.00
18504;BME280;9381;54.244;10.074;2023-06-14T06:15:33;101624.06;;;18.42;98.57
18504;BME280;9381;54.244;10.074;2023-06-14T06:20:33;101625.69;;;18.54;98.95
18504;BME280;9381;54.244;10.074;2023-06-14T06:25:34;101625.38;;;18.67;96.85
18504;BME280;9381;54.244;10.074;2023-06-14T06:30:35;101628.34;;;18.82;96.79
18504;BME280;9381;54.244;10.074;2023-06-14T06:35:36;101633.00;;;18.98;95.16
18504;BME280;9381;54.244;10.074;2023-06-14T06:40:37;101635.16;;;19.13;93.79
18504;BME280;9381;54.244;10.074;2023-06-14T06:45:37;101630.00;;;19.33;92.29
18504;BME280;9381;54.244;10.074;2023-06-14T06:50:38;101631.00;;;19.43;92.19
18504;BME280;9381;54.244;10.074;2023-06-14T06:55:38;101634.66;;;19.70;90.10
18504;BME280;9381;54.244;10.074;2023-06-14T07:00:38;101642.03;;;19.86;88.32
18504;BME280;9381;54.244;10.074;2023-06-14T07:05:39;101633.81;;;19.91;88.63
18504;BME280;9381;54.244;10.074;2023-06-14T07:10:39;101640.13;;;20.08;84.39
18504;BME280;9381;54.244;10.074;2023-06-14T07:15:40;101651.84;;;20.25;84.49
18504;BME280;9381;54.244;10.074;2023-06-14T07:20:40;101652.06;;;20.45;83.72
18504;BME280;9381;54.244;10.074;2023-06-14T07:25:41;101655.88;;;20.71;82.11
18504;BME280;9381;54.244;10.074;2023-06-14T07:30:41;101656.81;;;20.81;81.16
18504;BME280;9381;54.244;10.074;2023-06-14T07:35:42;101666.44;;;21.10;79.01
18504;BME280;9381;54.244;10.074;2023-06-14T07:40:42;101655.56;;;21.25;78.50
18504;BME280;9381;54.244;10.074;2023-06-14T07:45:43;101653.53;;;21.52;76.78
18504;BME280;9381;54.244;10.074;2023-06-14T07:50:43;101651.41;;;21.64;75.73
18504;BME280;9381;54.244;10.074;2023-06-14T07:55:44;101652.31;;;21.79;73.57
18504;BME280;9381;54.244;10.074;2023-06-14T08:00:44;101648.28;;;22.02;72.37
18504;BME280;9381;54.244;10.074;2023-06-14T08:05:44;101650.03;;;22.23;71.96
18504;BME280;9381;54.244;10.074;2023-06-14T08:10:45;101651.22;;;22.47;70.13
18504;BME280;9381;54.244;10.074;2023-06-14T08:15:45;101643.50;;;22.59;69.55
18504;BME280;9381;54.244;10.074;2023-06-14T08:20:45;101640.78;;;22.74;69.09
18504;BME280;9381;54.244;10.074;2023-06-14T08:25:46;101635.84;;;22.96;69.70
18504;BME280;9381;54.244;10.074;2023-06-14T08:30:47;101641.06;;;23.17;67.28
18504;BME280;9381;54.244;10.074;2023-06-14T08:35:48;101641.88;;;23.38;65.76
18504;BME280;9381;54.244;10.074;2023-06-14T08:40:50;101630.78;;;23.58;64.60
18504;BME280;9381;54.244;10.074;2023-06-14T08:45:54;101634.06;;;23.70;62.73
18504;BME280;9381;54.244;10.074;2023-06-14T08:51:01;101636.97;;;24.08;60.81
18504;BME280;9381;54.244;10.074;2023-06-14T08:56:04;101636.03;;;24.28;59.49
18504;BME280;9381;54.244;10.074;2023-06-14T09:01:05;101640.59;;;24.04;60.09
18504;BME280;9381;54.244;10.074;2023-06-14T09:06:08;101637.63;;;23.85;61.78
18504;BME280;9381;54.244;10.074;2023-06-14T09:11:14;101645.00;;;24.10;64.77
18504;BME280;9381;54.244;10.074;2023-06-14T09:16:15;101646.47;;;24.40;63.65
18504;BME280;9381;54.244;10.074;2023-06-14T09:21:16;101646.13;;;24.04;65.29
18504;BME280;9381;54.244;10.074;2023-06-14T09:26:18;101650.47;;;24.20;67.63
18504;BME280;9381;54.244;10.074;2023-06-14T09:31:23;101649.72;;;24.04;66.94
18504;BME280;9381;54.244;10.074;2023-06-14T09:36:24;101648.97;;;23.79;67.38
18504;BME280;9381;54.244;10.074;2023-06-14T09:41:36;101655.13;;;23.46;63.93
18504;BME280;9381;54.244;10.074;2023-06-14T09:46:36;101645.34;;;23.93;62.90
18504;BME280;9381;54.244;10.074;2023-06-14T09:51:43;101646.69;;;24.01;64.33
18504;BME280;9381;54.244;10.074;2023-06-14T09:56:46;101649.47;;;23.96;62.03
18504;BME280;9381;54.244;10.074;2023-06-14T10:01:47;101648.59;;;24.97;59.29
18504;BME280;9381;54.244;10.074;2023-06-14T10:06:48;101633.09;;;25.29;57.08
18504;BME280;9381;54.244;10.074;2023-06-14T10:11:50;101635.31;;;25.27;56.84
18504;BME280;9381;54.244;10.074;2023-06-14T10:17:00;101633.81;;;26.52;53.03
18504;BME280;9381;54.244;10.074;2023-06-14T10:22:23;101637.47;;;26.66;50.81
18504;BME280;9381;54.244;10.074;2023-06-14T10:27:25;101628.03;;;27.31;49.21
18504;BME280;9381;54.244;10.074;2023-06-14T10:32:25;101635.81;;;26.65;49.81
18504;BME280;9381;54.244;10.074;2023-06-14T10:37:28;101633.50;;;27.04;49.52
18504;BME280;9381;54.244;10.074;2023-06-14T10:42:31;101629.19;;;26.98;48.37
18504;BME280;9381;54.244;10.074;2023-06-14T10:47:36;101625.59;;;27.70;46.34
18504;BME280;9381;54.244;10.074;2023-06-14T10:52:40;101627.97;;;28.44;46.26
18504;BME280;9381;54.244;10.074;2023-06-14T10:57:45;101625.03;;;28.00;45.38
18504;BME280;9381;54.244;10.074;2023-06-14T11:02:51;101613.69;;;28.10;45.39
18504;BME280;9381;54.244;10.074;2023-06-14T11:08:19;101620.28;;;28.85;43.35
18504;BME280;9381;54.244;10.074;2023-06-14T11:13:25;101625.28;;;29.49;43.50
18504;BME280;9381;54.244;10.074;2023-06-14T11:18:28;101616.56;;;30.28;41.05
18504;BME280;9381;54.244;10.074;2023-06-14T11:23:29;101613.81;;;30.54;39.56
18504;BME280;9381;54.244;10.074;2023-06-14T11:28:40;101597.31;;;31.12;39.21
18504;BME280;9381;54.244;10.074;2023-06-14T11:33:40;101595.00;;;31.31;40.09
18504;BME280;9381;54.244;10.074;2023-06-14T11:38:41;101590.41;;;31.09;39.50
18504;BME280;9381;54.244;10.074;2023-06-14T11:43:41;101578.28;;;31.05;38.55
18504;BME280;9381;54.244;10.074;2023-06-14T11:48:42;101593.25;;;30.92;38.53
18504;BME280;9381;54.244;10.074;2023-06-14T11:53:43;101592.91;;;30.60;38.61
18504;BME280;9381;54.244;10.074;2023-06-14T11:58:43;101584.63;;;31.31;37.80
18504;BME280;9381;54.244;10.074;2023-06-14T12:03:49;101579.09;;;30.97;37.26
18504;BME280;9381;54.244;10.074;2023-06-14T12:08:49;101577.09;;;31.15;37.66
18504;BME280;9381;54.244;10.074;2023-06-14T12:13:50;101570.69;;;31.06;38.33
18504;BME280;9381;54.244;10.074;2023-06-14T12:18:53;101569.16;;;31.33;39.51
18504;BME280;9381;54.244;10.074;2023-06-14T12:23:53;101566.13;;;31.84;38.11
18504;BME280;9381;54.244;10.074;2023-06-14T12:28:54;101571.72;;;31.84;38.80
18504;BME280;9381;54.244;10.074;2023-06-14T12:33:54;101564.75;;;32.19;37.71
18504;BME280;9381;54.244;10.074;2023-06-14T12:38:54;101569.16;;;31.62;40.02
18504;BME280;9381;54.244;10.074;2023-06-14T12:43:54;101575.31;;;31.02;40.99
18504;BME280;9381;54.244;10.074;2023-06-14T12:48:55;101559.06;;;31.49;39.39
18504;BME280;9381;54.244;10.074;2023-06-14T12:53:55;101567.47;;;30.36;40.43
18504;BME280;9381;54.244;10.074;2023-06-14T12:58:56;101562.78;;;29.89;41.36
18504;BME280;9381;54.244;10.074;2023-06-14T13:03:56;101564.66;;;30.10;43.33
18504;BME280;9381;54.244;10.074;2023-06-14T13:08:57;101564.38;;;30.63;42.10
18504;BME280;9381;54.244;10.074;2023-06-14T13:13:59;101556.22;;;31.04;42.40
18504;BME280;9381;54.244;10.074;2023-06-14T13:18:59;101551.53;;;31.41;41.17
18504;BME280;9381;54.244;10.074;2023-06-14T13:24:00;101552.28;;;31.05;41.02
18504;BME280;9381;54.244;10.074;2023-06-14T13:29:00;101561.16;;;31.07;41.32
18504;BME280;9381;54.244;10.074;2023-06-14T13:34:00;101554.75;;;29.87;41.82
18504;BME280;9381;54.244;10.074;2023-06-14T13:39:01;101548.16;;;29.36;44.56
18504;BME280;9381;54.244;10.074;2023-06-14T13:44:01;101546.66;;;29.69;42.05
18504;BME280;9381;54.244;10.074;2023-06-14T13:49:04;101545.91;;;29.46;40.65
18504;BME280;9381;54.244;10.074;2023-06-14T13:54:05;101557.88;;;29.08;43.13
18504;BME280;9381;54.244;10.074;2023-06-14T13:59:06;101565.34;;;28.77;43.81
18504;BME280;9381;54.244;10.074;2023-06-14T14:04:06;101551.22;;;28.73;42.27
18504;BME280;9381;54.244;10.074;2023-06-14T14:09:08;101551.56;;;28.94;42.79
18504;BME280;9381;54.244;10.074;2023-06-14T14:14:08;101556.22;;;28.41;42.23
18504;BME280;9381;54.244;10.074;2023-06-14T14:19:10;101545.47;;;28.12;42.80
18504;BME280;9381;54.244;10.074;2023-06-14T14:24:10;101538.19;;;28.03;42.63
18504;BME280;9381;54.244;10.074;2023-06-14T14:29:10;101539.34;;;27.48;42.88
18504;BME280;9381;54.244;10.074;2023-06-14T14:34:12;101533.50;;;27.63;44.35
18504;BME280;9381;54.244;10.074;2023-06-14T14:39:12;101535.53;;;27.71;45.14
18504;BME280;9381;54.244;10.074;2023-06-14T14:44:12;101534.31;;;27.50;44.73
18504;BME280;9381;54.244;10.074;2023-06-14T14:49:13;101533.81;;;27.35;44.63
18504;BME280;9381;54.244;10.074;2023-06-14T14:54:13;101542.59;;;27.10;45.40
18504;BME280;9381;54.244;10.074;2023-06-14T14:59:13;101528.69;;;26.96;45.96
18504;BME280;9381;54.244;10.074;2023-06-14T15:04:14;101529.78;;;26.82;46.61
18504;BME280;9381;54.244;10.074;2023-06-14T15:09:14;101536.22;;;26.45;46.18
18504;BME280;9381;54.244;10.074;2023-06-14T15:14:15;101539.81;;;26.64;45.96
18504;BME280;9381;54.244;10.074;2023-06-14T15:19:17;101542.38;;;26.24;46.22
18504;BME280;9381;54.244;10.074;2023-06-14T15:24:18;101541.56;;;26.23;47.39
18504;BME280;9381;54.244;10.074;2023-06-14T15:29:18;101537.44;;;26.02;47.83
18504;BME280;9381;54.244;10.074;2023-06-14T15:34:19;101528.16;;;25.93;48.39
18504;BME280;9381;54.244;10.074;2023-06-14T15:39:20;101538.78;;;25.63;49.06
18504;BME280;9381;54.244;10.074;2023-06-14T15:44:20;101533.25;;;25.39;50.25
18504;BME280;9381;54.244;10.074;2023-06-14T15:49:21;101535.56;;;25.32;49.50
18504;BME280;9381;54.244;10.074;2023-06-14T15:54:21;101534.13;;;25.11;50.04
18504;BME280;9381;54.244;10.074;2023-06-14T15:59:21;101534.75;;;25.03;50.97
18504;BME280;9381;54.244;10.074;2023-06-14T16:04:22;101529.72;;;25.05;50.54
18504;BME280;9381;54.244;10.074;2023-06-14T16:09:22;101533.22;;;25.16;50.71
18504;BME280;9381;54.244;10.074;2023-06-14T16:14:23;101527.41;;;24.89;50.70
18504;BME280;9381;54.244;10.074;2023-06-14T16:19:23;101526.13;;;24.81;50.57
18504;BME280;9381;54.244;10.074;2023-06-14T16:24:24;101530.22;;;24.60;51.95
18504;BME280;9381;54.244;10.074;2023-06-14T16:29:24;101531.34;;;24.54;52.36
18504;BME280;9381;54.244;10.074;2023-06-14T16:34:24;101528.66;;;24.39;53.16
18504;BME280;9381;54.244;10.074;2023-06-14T16:39:25;101531.06;;;24.18;53.62
18504;BME280;9381;54.244;10.074;2023-06-14T16:44:26;101541.16;;;23.94;52.45
18504;BME280;9381;54.244;10.074;2023-06-14T16:49:26;101535.88;;;23.97;52.65
18504;BME280;9381;54.244;10.074;2023-06-14T16:54:26;101525.94;;;24.01;52.83
18504;BME280;9381;54.244;10.074;2023-06-14T16:59:27;101533.47;;;23.81;53.21
18504;BME280;9381;54.244;10.074;2023-06-14T17:04:27;101533.16;;;23.82;53.09
18504;BME280;9381;54.244;10.074;2023-06-14T17:09:27;101544.59;;;23.66;54.71
18504;BME280;9381;54.244;10.074;2023-06-14T17:14:28;101545.72;;;23.60;53.69
18504;BME280;9381;54.244;10.074;2023-06-14T17:19:28;101547.13;;;23.57;51.77
18504;BME280;9381;54.244;10.074;2023-06-14T17:24:29;101548.50;;;23.55;52.29
18504;BME280;9381;54.244;10.074;2023-06-14T17:29:29;101551.31;;;23.45;53.25
18504;BME280;9381;54.244;10.074;2023-06-14T17:34:29;101548.88;;;23.23;53.69
18504;BME280;9381;54.244;10.074;2023-06-14T17:39:30;101540.31;;;23.10;54.46
18504;BME280;9381;54.244;10.074;2023-06-14T17:44:30;101551.38;;;23.10;53.48
18504;BME280;9381;54.244;10.074;2023-06-14T17:49:31;101545.88;;;22.95;54.79
18504;BME280;9381;54.244;10.074;2023-06-14T17:54:31;101551.09;;;23.06;54.68
18504;BME280;9381;54.244;10.074;2023-06-14T17:59:31;101549.75;;;22.99;53.75
18504;BME280;9381;54.244;10.074;2023-06-14T18:04:32;101560.25;;;22.87;53.94
18504;BME280;9381;54.244;10.074;2023-06-14T18:09:33;101560.81;;;22.69;54.30
18504;BME280;9381;54.244;10.074;2023-06-14T18:14:34;101563.00;;;22.57;54.97
18504;BME280;9381;54.244;10.074;2023-06-14T18:19:34;101567.41;;;22.43;56.27
18504;BME280;9381;54.244;10.074;2023-06-14T18:24:36;101567.09;;;22.29;56.05
18504;BME280;9381;54.244;10.074;2023-06-14T18:29:37;101562.94;;;22.17;57.44
18504;BME280;9381;54.244;10.074;2023-06-14T18:34:37;101570.59;;;22.00;56.89
18504;BME280;9381;54.244;10.074;2023-06-14T18:39:38;101570.34;;;22.01;55.60
18504;BME280;9381;54.244;10.074;2023-06-14T18:44:38;101572.78;;;21.93;56.02
18504;BME280;9381;54.244;10.074;2023-06-14T18:49:39;101570.50;;;21.75;55.78
18504;BME280;9381;54.244;10.074;2023-06-14T18:54:40;101575.38;;;21.58;56.93
18504;BME280;9381;54.244;10.074;2023-06-14T18:59:40;101578.50;;;21.25;57.71
18504;BME280;9381;54.244;10.074;2023-06-14T19:04:40;101572.16;;;21.24;58.25
18504;BME280;9381;54.244;10.074;2023-06-14T19:09:41;101569.59;;;21.08;60.32
18504;BME280;9381;54.244;10.074;2023-06-14T19:14:41;101573.03;;;20.89;61.84
18504;BME280;9381;54.244;10.074;2023-06-14T19:19:42;101571.44;;;20.66;63.05
18504;BME280;9381;54.244;10.074;2023-06-14T19:24:44;101579.44;;;20.36;63.83
18504;BME280;9381;54.244;10.074;2023-06-14T19:29:44;101582.50;;;20.13;63.93
18504;BME280;9381;54.244;10.074;2023-06-14T19:34:44;101585.25;;;19.92;64.47
18504;BME280;9381;54.244;10.074;2023-06-14T19:39:45;101585.25;;;19.70;64.74
18504;BME280;9381;54.244;10.074;2023-06-14T19:44:46;101587.75;;;19.50;66.08
18504;BME280;9381;54.244;10.074;2023-06-14T19:49:46;101584.13;;;19.28;66.10
18504;BME280;9381;54.244;10.074;2023-06-14T19:54:46;101586.78;;;19.07;66.68
18504;BME280;9381;54.244;10.074;2023-06-14T19:59:47;101593.72;;;18.93;67.17
18504;BME280;9381;54.244;10.074;2023-06-14T20:04:47;101589.25;;;18.70;67.91
18504;BME280;9381;54.244;10.074;2023-06-14T20:09:48;101599.03;;;18.50;68.69
18504;BME280;9381;54.244;10.074;2023-06-14T20:14:48;101591.88;;;18.32;69.67
18504;BME280;9381;54.244;10.074;2023-06-14T20:19:50;101595.56;;;18.26;69.62
18504;BME280;9381;54.244;10.074;2023-06-14T20:24:50;101603.59;;;18.16;69.93
18504;BME280;9381;54.244;10.074;2023-06-14T20:29:51;101610.63;;;18.12;69.97
18504;BME280;9381;54.244;10.074;2023-06-14T20:34:53;101606.91;;;17.90;71.02
18504;BME280;9381;54.244;10.074;2023-06-14T20:39:55;101605.53;;;17.77;71.22
18504;BME280;9381;54.244;10.074;2023-06-14T20:45:05;101607.22;;;17.55;71.75
18504;BME280;9381;54.244;10.074;2023-06-14T20:50:07;101609.25;;;17.48;71.93
18504;BME280;9381;54.244;10.074;2023-06-14T20:55:08;101612.50;;;17.22;72.43
18504;BME280;9381;54.244;10.074;2023-06-14T21:00:09;101611.53;;;17.05;72.95
18504;BME280;9381;54.244;10.074;2023-06-14T21:05:13;101613.91;;;17.01;73.49
18504;BME280;9381;54.244;10.074;2023-06-14T21:10:13;101608.44;;;16.90;74.10
18504;BME280;9381;54.244;10.074;2023-06-14T21:15:14;101600.81;;;16.92;75.43
18504;BME280;9381;54.244;10.074;2023-06-14T21:20:15;101599.88;;;16.98;75.16
18504;BME280;9381;54.244;10.074;2023-06-14T21:25:15;101612.47;;;16.99;75.28
18504;BME280;9381;54.244;10.074;2023-06-14T21:30:16;101604.75;;;16.84;75.26
18504;BME280;9381;54.244;10.074;2023-06-14T21:35:16;101611.50;;;16.82;75.85
18504;BME280;9381;54.244;10.074;2023-06-14T21:40:17;101612.78;;;16.56;76.23
18504;BME280;9381;54.244;10.074;2023-06-14T21:45:18;101613.53;;;16.34;76.83
18504;BME280;9381;54.244;10.074;2023-06-14T21:50:18;101603.63;;;16.21;77.76
18504;BME280;9381;54.244;10.074;2023-06-14T21:55:18;101606.69;;;16.13;78.38
18504;BME280;9381;54.244;10.074;2023-06-14T22:00:23;101605.13;;;16.06;79.10
18504;BME280;9381;54.244;10.074;2023-06-14T22:05:24;101603.19;;;16.06;79.40
18504;BME280;9381;54.244;10.074;2023-06-14T22:10:25;101609.69;;;15.94;79.62
18504;BME280;9381;54.244;10.074;2023-06-14T22:15:26;101612.88;;;15.91;79.82
18504;BME280;9381;54.244;10.074;2023-06-14T22:20:27;101608.75;;;15.70;80.86
18504;BME280;9381;54.244;10.074;2023-06-14T22:25:29;101615.41;;;15.56;81.74
18504;BME280;9381;54.244;10.074;2023-06-14T22:30:30;101616.25;;;15.39;82.78
18504;BME280;9381;54.244;10.074;2023-06-14T22:35:32;101614.56;;;15.38;83.69
18504;BME280;9381;54.244;10.074;2023-06-14T22:40:33;101615.94;;;15.47;83.83
18504;BME280;9381;54.244;10.074;2023-06-14T22:45:33;101616.47;;;15.37;84.65
18504;BME280;9381;54.244;10.074;2023-06-14T22:50:36;101620.47;;;15.35;85.12
18504;BME280;9381;54.244;10.074;2023-06-14T22:55:37;101626.19;;;15.27;84.97
18504;BME280;9381;54.244;10.074;2023-06-14T23:00:38;101610.59;;;15.16;86.84
18504;BME280;9381;54.244;10.074;2023-06-14T23:05:38;101611.34;;;15.05;86.95
18504;BME280;9381;54.244;10.074;2023-06-14T23:10:41;101610.09;;;15.01;86.25
18504;BME280;9381;54.244;10.074;2023-06-14T23:15:42;101607.44;;;14.70;86.21
18504;BME280;9381;54.244;10.074;2023-06-14T23:20:42;101608.97;;;14.66;86.33
18504;BME280;9381;54.244;10.074;2023-06-14T23:25:43;101612.56;;;14.60;86.66
18504;BME280;9381;54.244;10.074;2023-06-14T23:30:43;101616.63;;;14.51;87.14
18504;BME280;9381;54.244;10.074;2023-06-14T23:35:45;101617.22;;;14.53;87.62
18504;BME280;9381;54.244;10.074;2023-06-14T23:40:47;101616.81;;;14.56;87.94
18504;BME280;9381;54.244;10.074;2023-06-14T23:45:49;101615.91;;;14.62;87.96
18504;BME280;9381;54.244;10.074;2023-06-14T23:50:53;101605.91;;;14.56;88.38
18504;BME280;9381;54.244;10.074;2023-06-14T23:55:54;101611.78;;;14.53;88.42
